createdAt,value
2022-09-01T00:00:52.135Z,102422.84
2022-09-01T00:03:24.298Z,102423.72
2022-09-01T00:05:58.881Z,102419.34
2022-09-01T00:08:31.062Z,102418.50
2022-09-01T00:11:03.288Z,102418.53
2022-09-01T00:13:35.325Z,102420.28
2022-09-01T00:16:07.618Z,102418.53
2022-09-01T00:18:42.307Z,102420.31
2022-09-01T00:21:14.322Z,102411.53
2022-09-01T00:23:47.007Z,102421.22
2022-09-01T00:26:19.750Z,102419.44
2022-09-01T00:28:51.951Z,102419.47
2022-09-01T00:31:25.002Z,102417.69
2022-09-01T00:33:57.116Z,102415.06
2022-09-01T00:36:29.364Z,102420.31
2022-09-01T00:39:02.470Z,102428.25
2022-09-01T00:41:38.789Z,102422.09
2022-09-01T00:44:15.968Z,102418.56
2022-09-01T00:46:55.149Z,102419.44
2022-09-01T00:49:43.848Z,102415.97
2022-09-01T00:52:38.821Z,102418.59
2022-09-01T00:55:26.277Z,102412.47
2022-09-01T00:58:00.659Z,102415.09
2022-09-01T01:00:40.978Z,102411.56
2022-09-01T01:03:14.699Z,102416.84
2022-09-01T01:05:58.338Z,102414.16
2022-09-01T01:08:37.890Z,102411.53
2022-09-01T01:11:19.706Z,102414.19
2022-09-01T01:13:57.564Z,102416.00
2022-09-01T01:16:29.863Z,102414.22
2022-09-01T01:19:02.283Z,102401.03
2022-09-01T01:21:58.955Z,102403.69
2022-09-01T01:24:35.297Z,102404.56
2022-09-01T01:27:07.297Z,102400.19
2022-09-01T01:29:40.016Z,102408.97
2022-09-01T01:32:13.146Z,102408.97
2022-09-01T01:34:48.690Z,102407.22
2022-09-01T01:37:25.535Z,102417.78
2022-09-01T01:39:57.728Z,102425.72
2022-09-01T01:42:30.204Z,102421.34
2022-09-01T01:45:03.363Z,102421.34
2022-09-01T01:47:35.363Z,102424.88
2022-09-01T01:50:09.536Z,102422.25
2022-09-01T01:52:45.542Z,102426.63
2022-09-01T01:55:27.754Z,102424.91
2022-09-01T01:58:01.206Z,102424.03
2022-09-01T02:00:34.678Z,102417.88
2022-09-01T02:03:07.660Z,102417.88
2022-09-01T02:05:40.624Z,102417.88
2022-09-01T02:08:15.792Z,102414.38
2022-09-01T02:10:51.864Z,102423.16
2022-09-01T02:13:31.311Z,102422.28
2022-09-01T02:16:13.649Z,102418.75
2022-09-01T02:18:49.987Z,102422.28
2022-09-01T02:21:25.043Z,102418.78
2022-09-01T02:24:02.357Z,102412.63
2022-09-01T02:26:39.652Z,102407.34
2022-09-01T02:29:19.201Z,102412.63
2022-09-01T02:31:53.554Z,102413.50
2022-09-01T02:34:29.044Z,102409.13
2022-09-01T02:37:01.082Z,102411.75
2022-09-01T02:39:33.754Z,102416.16
2022-09-01T02:42:05.967Z,102412.66
2022-09-01T02:44:41.470Z,102409.16
2022-09-01T02:47:13.741Z,102405.63
2022-09-01T02:49:46.832Z,102410.03
2022-09-01T02:52:20.811Z,102400.34
2022-09-01T02:54:53.985Z,102399.47
2022-09-01T02:57:25.947Z,102400.38
2022-09-01T02:59:58.966Z,102400.34
2022-09-01T03:02:31.627Z,102399.47
2022-09-01T03:05:03.851Z,102393.28
2022-09-01T03:07:36.405Z,102394.22
2022-09-01T03:10:09.851Z,102405.66
2022-09-01T03:12:41.779Z,102404.78
2022-09-01T03:15:13.800Z,102404.72
2022-09-01T03:17:45.858Z,102407.34
2022-09-01T03:20:19.613Z,102404.72
2022-09-01T03:22:52.710Z,102412.59
2022-09-01T03:25:26.023Z,102406.47
2022-09-01T03:28:03.284Z,102406.47
2022-09-01T03:30:40.191Z,102402.06
2022-09-01T03:33:12.278Z,102406.47
2022-09-01T03:35:45.654Z,102404.72
2022-09-01T03:38:22.087Z,102396.81
2022-09-01T03:41:03.114Z,102398.56
2022-09-01T03:43:35.980Z,102388.03
2022-09-01T03:46:10.145Z,102388.91
2022-09-01T03:48:43.165Z,102384.50
2022-09-01T03:51:15.324Z,102389.78
2022-09-01T03:53:47.480Z,102394.16
2022-09-01T03:56:19.902Z,102392.41
2022-09-01T03:58:52.967Z,102396.81
2022-09-01T04:01:33.803Z,102395.94
2022-09-01T04:04:06.774Z,102394.16
2022-09-01T04:06:38.818Z,102395.03
2022-09-01T04:09:11.182Z,102394.16
2022-09-01T04:11:46.462Z,102390.66
2022-09-01T04:14:18.749Z,102393.28
2022-09-01T04:17:09.151Z,102389.78
2022-09-01T04:19:42.379Z,102389.75
2022-09-01T04:22:15.785Z,102395.91
2022-09-01T04:24:47.737Z,102397.66
2022-09-01T04:27:21.700Z,102400.28
2022-09-01T04:29:57.426Z,102389.75
2022-09-01T04:32:29.694Z,102395.03
2022-09-01T04:35:02.250Z,102395.03
2022-09-01T04:37:36.591Z,102405.56
2022-09-01T04:40:10.156Z,102408.16
2022-09-01T04:42:43.007Z,102397.63
2022-09-01T04:45:20.444Z,102402.03
2022-09-01T04:47:52.691Z,102404.66
2022-09-01T04:50:30.879Z,102402.91
2022-09-01T04:53:06.957Z,102401.16
2022-09-01T04:55:44.280Z,102406.41
2022-09-01T04:58:18.729Z,102402.03
2022-09-01T05:00:55.585Z,102404.63
2022-09-01T05:03:28.228Z,102409.00
2022-09-01T05:06:02.581Z,102399.34
2022-09-01T05:08:35.487Z,102410.78
2022-09-01T05:11:09.370Z,102409.00
2022-09-01T05:13:41.496Z,102395.88
2022-09-01T05:16:25.212Z,102413.44
2022-09-01T05:18:58.093Z,102406.44
2022-09-01T05:21:30.146Z,102410.81
2022-09-01T05:24:05.125Z,102407.31
2022-09-01T05:26:40.994Z,102409.06
2022-09-01T05:29:16.069Z,102409.94
2022-09-01T05:31:50.410Z,102404.69
2022-09-01T05:34:27.191Z,102404.69
2022-09-01T05:37:00.270Z,102413.47
2022-09-01T05:39:33.028Z,102416.97
2022-09-01T05:42:08.491Z,102417.00
2022-09-01T05:44:44.328Z,102418.75
2022-09-01T05:47:20.809Z,102417.00
2022-09-01T05:49:53.908Z,102416.13
2022-09-01T05:52:26.513Z,102417.88
2022-09-01T05:55:00.195Z,102419.63
2022-09-01T05:57:35.403Z,102421.44
2022-09-01T06:00:13.571Z,102421.47
2022-09-01T06:02:45.651Z,102416.19
2022-09-01T06:05:17.766Z,102414.44
2022-09-01T06:07:51.058Z,102412.66
2022-09-01T06:10:23.732Z,102415.31
2022-09-01T06:12:55.692Z,102416.16
2022-09-01T06:15:29.626Z,102424.06
2022-09-01T06:18:02.819Z,102425.81
2022-09-01T06:20:39.491Z,102425.78
2022-09-01T06:23:15.398Z,102431.06
2022-09-01T06:25:48.112Z,102423.13
2022-09-01T06:28:21.371Z,102416.97
2022-09-01T06:30:53.782Z,102425.72
2022-09-01T06:33:25.929Z,102429.22
2022-09-01T06:36:02.335Z,102427.47
2022-09-01T06:38:34.387Z,102421.31
2022-09-01T06:41:09.876Z,102425.69
2022-09-01T06:43:42.625Z,102429.19
2022-09-01T06:46:14.776Z,102436.22
2022-09-01T06:48:48.125Z,102436.22
2022-09-01T06:51:22.693Z,102440.63
2022-09-01T06:54:02.400Z,102441.50
2022-09-01T06:56:37.122Z,102443.25
2022-09-01T06:59:34.856Z,102445.81
2022-09-01T07:02:13.939Z,102437.00
2022-09-01T07:04:50.046Z,102449.28
2022-09-01T07:10:21.428Z,102451.81
2022-09-01T07:13:08.945Z,102447.31
2022-09-01T07:18:35.293Z,102450.63
2022-09-01T07:21:36.296Z,102452.25
2022-09-01T07:24:08.555Z,102452.13
2022-09-01T07:26:47.287Z,102457.16
2022-09-01T07:29:35.421Z,102455.09
2022-09-01T07:35:01.020Z,102454.50
2022-09-01T07:43:33.423Z,102448.75
2022-09-01T07:49:03.232Z,102446.69
2022-09-01T07:51:55.219Z,102450.56
2022-09-01T07:54:27.658Z,102444.47
2022-09-01T07:56:59.865Z,102450.94
2022-09-01T07:59:33.479Z,102454.97
2022-09-01T08:02:06.683Z,102445.53
2022-09-01T08:04:40.061Z,102447.44
2022-09-01T08:07:19.010Z,102445.16
2022-09-01T08:09:56.011Z,102447.19
2022-09-01T08:12:33.709Z,102450.00
2022-09-01T08:15:13.052Z,102452.72
2022-09-01T08:17:53.736Z,102444.44
2022-09-01T08:20:25.925Z,102448.06
2022-09-01T08:22:57.879Z,102443.94
2022-09-01T08:25:32.066Z,102447.22
2022-09-01T08:28:04.840Z,102442.81
2022-09-01T08:30:40.703Z,102445.16
2022-09-01T08:33:13.979Z,102451.75
2022-09-01T08:35:49.439Z,102434.91
2022-09-01T08:38:21.590Z,102433.75
2022-09-01T08:41:05.312Z,102424.78
2022-09-01T08:43:49.297Z,102434.25
2022-09-01T08:46:35.175Z,102431.25
2022-09-01T08:49:31.355Z,102432.78
2022-09-01T08:52:31.830Z,102429.25
2022-09-01T08:55:38.599Z,102437.28
2022-09-01T08:58:15.959Z,102427.22
2022-09-01T09:00:57.971Z,102436.25
2022-09-01T09:04:07.092Z,102428.19
2022-09-01T09:07:13.579Z,102430.97
2022-09-01T09:09:58.359Z,102425.84
2022-09-01T09:13:01.487Z,102427.81
2022-09-01T09:16:07.265Z,102431.81
2022-09-01T09:18:58.035Z,102428.56
2022-09-01T09:21:41.684Z,102416.34
2022-09-01T09:24:50.299Z,102418.75
2022-09-01T09:27:38.255Z,102418.78
2022-09-01T09:30:20.105Z,102418.34
2022-09-01T09:33:47.823Z,102417.34
2022-09-01T09:36:29.799Z,102404.00
2022-09-01T09:39:16.671Z,102406.31
2022-09-01T09:42:21.358Z,102397.91
2022-09-01T09:44:57.566Z,102398.59
2022-09-01T09:47:44.661Z,102396.09
2022-09-01T09:50:27.440Z,102402.88
2022-09-01T09:53:29.964Z,102398.59
2022-09-01T09:56:26.379Z,102396.44
2022-09-01T09:58:58.525Z,102398.16
2022-09-01T10:01:31.832Z,102394.84
2022-09-01T10:04:04.373Z,102395.84
2022-09-01T10:06:47.126Z,102390.78
2022-09-01T10:09:22.092Z,102399.19
2022-09-01T10:11:59.039Z,102388.16
2022-09-01T10:14:55.909Z,102383.41
2022-09-01T10:17:37.335Z,102383.28
2022-09-01T10:20:21.584Z,102388.88
2022-09-01T10:22:54.091Z,102384.09
2022-09-01T10:25:32.447Z,102381.34
2022-09-01T10:28:24.306Z,102377.81
2022-09-01T10:30:58.591Z,102375.47
2022-09-01T10:33:30.628Z,102377.16
2022-09-01T10:36:06.846Z,102366.88
2022-09-01T10:38:40.103Z,102369.91
2022-09-01T10:41:59.844Z,102375.75
2022-09-01T10:44:59.258Z,102367.13
2022-09-01T10:47:34.259Z,102366.69
2022-09-01T10:50:35.471Z,102364.97
2022-09-01T10:53:08.211Z,102363.69
2022-09-01T10:56:02.720Z,102352.19
2022-09-01T11:02:26.701Z,102359.94
2022-09-01T11:05:00.355Z,102353.75
2022-09-01T11:08:00.105Z,102352.34
2022-09-01T11:10:42.009Z,102347.97
2022-09-01T11:13:47.609Z,102341.94
2022-09-01T11:16:51.399Z,102347.00
2022-09-01T11:19:38.406Z,102339.84
2022-09-01T11:22:13.342Z,102344.81
2022-09-01T11:25:12.322Z,102348.06
2022-09-01T11:27:50.741Z,102337.72
2022-09-01T11:30:37.248Z,102336.81
2022-09-01T11:33:57.648Z,102339.56
2022-09-01T11:37:00.475Z,102326.84
2022-09-01T11:40:04.018Z,102333.03
2022-09-01T11:42:46.879Z,102336.06
2022-09-01T11:45:22.125Z,102334.38
2022-09-01T11:48:08.871Z,102334.19
2022-09-01T11:50:42.710Z,102331.06
2022-09-01T11:53:22.351Z,102339.84
2022-09-01T11:56:20.444Z,102324.91
2022-09-01T11:58:52.526Z,102334.22
2022-09-01T12:01:30.177Z,102316.16
2022-09-01T12:04:32.049Z,102317.50
2022-09-01T12:07:12.687Z,102313.00
2022-09-01T12:09:48.128Z,102311.28
2022-09-01T12:12:46.981Z,102309.69
2022-09-01T12:15:25.028Z,102304.66
2022-09-01T12:18:22.165Z,102311.38
2022-09-01T12:20:58.582Z,102314.69
2022-09-01T12:23:40.429Z,102310.13
2022-09-01T12:26:18.524Z,102300.44
2022-09-01T12:28:51.033Z,102304.91
2022-09-01T12:31:26.378Z,102297.13
2022-09-01T12:33:58.560Z,102291.09
2022-09-01T12:36:35.959Z,102299.03
2022-09-01T12:39:23.115Z,102295.25
2022-09-01T12:42:41.056Z,102298.13
2022-09-01T12:45:47.081Z,102288.47
2022-09-01T12:48:33.785Z,102290.81
2022-09-01T12:51:18.562Z,102290.44
2022-09-01T12:53:58.883Z,102291.19
2022-09-01T12:56:38.065Z,102295.78
2022-09-01T12:59:17.176Z,102295.22
2022-09-01T13:01:50.970Z,102293.81
2022-09-01T13:04:31.070Z,102291.69
2022-09-01T13:07:06.920Z,102284.09
2022-09-01T13:09:47.987Z,102279.88
2022-09-01T13:12:21.725Z,102276.44
2022-09-01T13:14:53.715Z,102280.28
2022-09-01T13:17:26.355Z,102268.16
2022-09-01T13:19:58.647Z,102270.34
2022-09-01T13:22:30.715Z,102277.44
2022-09-01T13:25:03.223Z,102283.47
2022-09-01T13:27:35.181Z,102278.34
2022-09-01T13:30:07.917Z,102279.13
2022-09-01T13:33:18.886Z,102277.09
2022-09-01T13:35:32.438Z,102264.34
2022-09-01T13:38:04.487Z,102272.53
2022-09-01T13:40:36.866Z,102264.56
2022-09-01T13:43:08.860Z,102252.97
2022-09-01T13:45:42.043Z,102256.22
2022-09-01T13:48:16.482Z,102250.19
2022-09-01T13:53:43.081Z,102244.63
2022-09-01T13:56:15.089Z,102254.13
2022-09-01T13:58:48.763Z,102249.94
2022-09-01T14:01:23.477Z,102246.69
2022-09-01T14:04:00.128Z,102249.63
2022-09-01T14:06:33.281Z,102242.25
2022-09-01T14:09:05.415Z,102239.88
2022-09-01T14:11:37.847Z,102233.56
2022-09-01T14:14:09.827Z,102223.78
2022-09-01T14:16:41.866Z,102231.44
2022-09-01T14:19:13.985Z,102223.44
2022-09-01T14:21:47.449Z,102227.06
2022-09-01T14:24:20.975Z,102218.19
2022-09-01T14:26:53.005Z,102226.38
2022-09-01T14:29:25.598Z,102218.97
2022-09-01T14:31:57.802Z,102214.00
2022-09-01T14:34:31.033Z,102219.69
2022-09-01T14:37:04.311Z,102211.28
2022-09-01T14:39:36.296Z,102211.00
2022-09-01T14:42:10.247Z,102209.03
2022-09-01T14:44:43.680Z,102204.97
2022-09-01T14:47:18.253Z,102193.63
2022-09-01T14:49:55.454Z,102200.44
2022-09-01T14:52:27.530Z,102196.41
2022-09-01T14:55:02.262Z,102186.34
2022-09-01T14:57:37.710Z,102186.03
2022-09-01T15:00:12.552Z,102189.03
2022-09-01T15:02:45.465Z,102193.25
2022-09-01T15:05:18.021Z,102189.56
2022-09-01T15:07:51.097Z,102177.53
2022-09-01T15:10:26.327Z,102181.50
2022-09-01T15:13:01.066Z,102189.91
2022-09-01T15:15:33.299Z,102180.00
2022-09-01T15:18:11.238Z,102179.56
2022-09-01T15:20:46.527Z,102173.25
2022-09-01T15:23:23.582Z,102167.41
2022-09-01T15:25:57.984Z,102168.47
2022-09-01T15:28:30.181Z,102156.63
2022-09-01T15:31:02.274Z,102162.31
2022-09-01T15:33:34.370Z,102162.03
2022-09-01T15:36:16.984Z,102153.72
2022-09-01T15:38:49.554Z,102155.66
2022-09-01T15:41:28.716Z,102156.97
2022-09-01T15:44:05.923Z,102161.00
2022-09-01T15:46:39.294Z,102158.88
2022-09-01T15:49:12.215Z,102155.41
2022-09-01T15:51:45.684Z,102148.97
2022-09-01T15:54:21.461Z,102148.09
2022-09-01T15:56:53.459Z,102146.22
2022-09-01T15:59:25.555Z,102152.31
2022-09-01T16:01:58.690Z,102157.75
2022-09-01T16:04:31.663Z,102144.72
2022-09-01T16:07:04.478Z,102145.13
2022-09-01T16:09:37.418Z,102152.25
2022-09-01T16:12:09.960Z,102151.06
2022-09-01T16:14:44.621Z,102147.66
2022-09-01T16:17:23.810Z,102145.91
2022-09-01T16:20:24.724Z,102144.34
2022-09-01T16:23:08.891Z,102138.31
2022-09-01T16:25:41.627Z,102142.63
2022-09-01T16:28:36.128Z,102129.06
2022-09-01T16:31:18.155Z,102139.41
2022-09-01T16:33:57.678Z,102141.38
2022-09-01T16:36:49.542Z,102131.59
2022-09-01T16:39:34.118Z,102140.66
2022-09-01T16:42:39.085Z,102132.78
2022-09-01T16:45:42.761Z,102129.31
2022-09-01T16:48:52.927Z,102130.19
2022-09-01T16:51:35.288Z,102118.13
2022-09-01T16:54:30.714Z,102122.53
2022-09-01T16:57:14.865Z,102122.84
2022-09-01T16:59:55.682Z,102120.47
2022-09-01T17:02:51.070Z,102125.94
2022-09-01T17:05:32.116Z,102121.03
2022-09-01T17:08:16.925Z,102121.19
2022-09-01T17:11:10.459Z,102124.13
2022-09-01T17:13:52.282Z,102114.50
2022-09-01T17:16:37.343Z,102120.13
2022-09-01T17:19:16.781Z,102123.69
2022-09-01T17:21:56.265Z,102124.56
2022-09-01T17:24:43.502Z,102125.47
2022-09-01T17:27:37.242Z,102126.47
2022-09-01T17:30:09.864Z,102122.28
2022-09-01T17:33:17.631Z,102136.66
2022-09-01T17:36:48.114Z,102128.09
2022-09-01T17:39:36.553Z,102130.03
2022-09-01T17:42:38.619Z,102138.91
2022-09-01T17:45:29.186Z,102139.13
2022-09-01T17:48:15.289Z,102133.16
2022-09-01T17:51:18.127Z,102138.66
2022-09-01T17:54:34.889Z,102138.91
2022-09-01T17:57:29.894Z,102139.13
2022-09-01T18:00:24.773Z,102140.06
2022-09-01T18:03:19.338Z,102139.31
2022-09-01T18:06:32.684Z,102136.00
2022-09-01T18:09:07.202Z,102143.41
2022-09-01T18:12:02.385Z,102142.00
2022-09-01T18:15:05.016Z,102140.47
2022-09-01T18:17:51.024Z,102130.91
2022-09-01T18:20:50.703Z,102140.88
2022-09-01T18:23:22.782Z,102149.03
2022-09-01T18:26:04.032Z,102147.44
2022-09-01T18:28:36.688Z,102145.78
2022-09-01T18:31:30.175Z,102139.84
2022-09-01T18:34:46.951Z,102157.03
2022-09-01T18:38:09.263Z,102158.19
2022-09-01T18:41:12.346Z,102163.69
2022-09-01T18:44:16.843Z,102162.13
2022-09-01T18:47:01.804Z,102159.56
2022-09-01T18:50:02.983Z,102156.19
2022-09-01T18:52:43.376Z,102168.75
2022-09-01T18:55:25.924Z,102177.91
2022-09-01T18:58:06.302Z,102175.28
2022-09-01T19:00:54.763Z,102173.84
2022-09-01T19:03:53.938Z,102165.06
2022-09-01T19:06:46.991Z,102166.19
2022-09-01T19:09:45.147Z,102173.41
2022-09-01T19:12:42.043Z,102174.50
2022-09-01T19:15:43.112Z,102173.88
2022-09-01T19:18:43.122Z,102171.38
2022-09-01T19:21:28.267Z,102175.09
2022-09-01T19:24:14.478Z,102173.41
2022-09-01T19:26:51.531Z,102175.31
2022-09-01T19:29:52.457Z,102172.69
2022-09-01T19:32:29.855Z,102178.16
2022-09-01T19:35:13.859Z,102181.09
2022-09-01T19:37:50.750Z,102181.19
2022-09-01T19:40:30.809Z,102184.78
2022-09-01T19:43:11.653Z,102177.78
2022-09-01T19:46:09.806Z,102179.72
2022-09-01T19:48:58.314Z,102185.16
2022-09-01T19:52:16.183Z,102184.34
2022-09-01T19:55:07.396Z,102187.19
2022-09-01T19:58:02.261Z,102200.56
2022-09-01T20:00:52.654Z,102191.88
2022-09-01T20:03:51.256Z,102193.78
2022-09-01T20:06:42.700Z,102188.53
2022-09-01T20:09:23.461Z,102196.63
2022-09-01T20:12:45.130Z,102196.81
2022-09-01T20:15:48.481Z,102196.06
2022-09-01T20:18:40.706Z,102196.97
2022-09-01T20:21:18.924Z,102199.63
2022-09-01T20:24:01.121Z,102189.25
2022-09-01T20:26:45.156Z,102202.50
2022-09-01T20:29:49.755Z,102201.75
2022-09-01T20:33:00.257Z,102200.94
2022-09-01T20:36:11.584Z,102207.28
2022-09-01T20:39:23.470Z,102201.28
2022-09-01T20:42:10.278Z,102205.72
2022-09-01T20:44:55.872Z,102196.03
2022-09-01T20:47:31.515Z,102206.63
2022-09-01T20:50:12.686Z,102209.34
2022-09-01T20:53:43.865Z,102208.47
2022-09-01T20:56:43.266Z,102210.34
2022-09-01T20:59:59.525Z,102212.97
2022-09-01T21:03:07.691Z,102219.25
2022-09-01T21:06:26.119Z,102207.94
2022-09-01T21:09:11.997Z,102214.16
2022-09-01T21:12:14.988Z,102218.66
2022-09-01T21:15:07.899Z,102220.50
2022-09-01T21:18:33.267Z,102228.63
2022-09-01T21:21:13.797Z,102208.34
2022-09-01T21:23:45.730Z,102211.97
2022-09-01T21:26:17.877Z,102207.59
2022-09-01T21:28:55.383Z,102210.28
2022-09-01T21:31:27.494Z,102212.06
2022-09-01T21:33:59.542Z,102205.91
2022-09-01T21:36:31.502Z,102205.94
2022-09-01T21:39:03.863Z,102204.25
2022-09-01T21:41:35.988Z,102207.00
2022-09-01T21:44:08.595Z,102199.13
2022-09-01T21:46:40.637Z,102200.97
2022-09-01T21:49:14.285Z,102199.25
2022-09-01T21:51:46.337Z,102192.22
2022-09-01T21:54:18.313Z,102194.94
2022-09-01T21:56:53.462Z,102191.47
2022-09-01T21:59:25.734Z,102205.66
2022-09-01T22:01:57.862Z,102198.59
2022-09-01T22:04:29.872Z,102196.06
2022-09-01T22:07:01.881Z,102192.59
2022-09-01T22:09:34.125Z,102197.06
2022-09-01T22:12:06.749Z,102202.38
2022-09-01T22:14:38.936Z,102205.91
2022-09-01T22:17:11.066Z,102205.97
2022-09-01T22:19:43.187Z,102199.84
2022-09-01T22:22:17.070Z,102205.16
2022-09-01T22:24:49.131Z,102200.88
2022-09-01T22:27:21.364Z,102202.66
2022-09-01T22:29:53.453Z,102196.53
2022-09-01T22:32:28.724Z,102201.81
2022-09-01T22:35:06.528Z,102205.38
2022-09-01T22:37:39.383Z,102199.25
2022-09-01T22:40:13.154Z,102200.19
2022-09-01T22:42:45.448Z,102201.09
2022-09-01T22:45:17.617Z,102202.91
2022-09-01T22:47:49.660Z,102212.63
2022-09-01T22:50:21.641Z,102201.25
2022-09-01T22:52:53.701Z,102206.56
2022-09-01T22:55:26.890Z,102211.88
2022-09-01T22:57:58.979Z,102203.06
2022-09-01T23:00:30.990Z,102200.47
2022-09-01T23:03:04.248Z,102201.38
2022-09-01T23:05:36.398Z,102201.38
2022-09-01T23:08:09.897Z,102191.72
2022-09-01T23:10:42.133Z,102194.41
2022-09-01T23:13:14.193Z,102198.00
2022-09-01T23:15:46.625Z,102199.81
2022-09-01T23:18:19.611Z,102199.00
2022-09-01T23:20:51.961Z,102202.56
2022-09-01T23:23:24.023Z,102196.47
2022-09-01T23:25:56.309Z,102198.25
2022-09-01T23:28:28.933Z,102191.22
2022-09-01T23:31:01.460Z,102185.13
2022-09-01T23:33:33.623Z,102183.34
2022-09-01T23:36:09.990Z,102178.09
2022-09-01T23:38:42.788Z,102179.94
2022-09-01T23:41:27.128Z,102174.69
2022-09-01T23:44:03.585Z,102183.50
2022-09-01T23:46:43.144Z,102178.28
2022-09-01T23:49:17.583Z,102173.91
2022-09-01T23:51:53.103Z,102169.50
2022-09-01T23:54:25.230Z,102168.63
2022-09-01T23:56:57.512Z,102165.13
2022-09-01T23:59:30.732Z,102169.50
